createdAt,value
2022-10-07T00:03:00.466Z,0.40
2022-10-07T00:06:39.118Z,0.30
2022-10-07T00:10:00.522Z,0.40
2022-10-07T00:13:36.566Z,0.38
2022-10-07T00:17:06.583Z,0.43
2022-10-07T00:20:36.611Z,0.40
2022-10-07T00:24:12.642Z,0.40
2022-10-07T00:27:42.968Z,0.40
2022-10-07T00:31:15.454Z,0.32
2022-10-07T00:34:42.730Z,0.40
2022-10-07T00:38:12.764Z,0.50
2022-10-07T00:41:51.450Z,0.40
2022-10-07T00:45:18.825Z,0.45
2022-10-07T00:48:54.857Z,0.40
2022-10-07T00:52:24.885Z,0.40
2022-10-07T00:56:00.920Z,0.32
2022-10-07T00:59:36.957Z,0.35
2022-10-07T01:03:12.994Z,0.30
2022-10-07T01:06:43.038Z,0.40
2022-10-07T01:10:19.059Z,0.50
2022-10-07T01:13:49.087Z,0.38
2022-10-07T01:17:49.122Z,0.30
2022-10-07T01:21:25.153Z,0.30
2022-10-07T01:24:55.184Z,0.30
2022-10-07T01:28:37.229Z,0.50
2022-10-07T01:32:07.248Z,0.52
2022-10-07T01:35:37.280Z,0.30
2022-10-07T01:39:13.312Z,0.20
2022-10-07T01:42:39.972Z,0.40
2022-10-07T01:46:16.080Z,0.50
2022-10-07T01:49:43.408Z,0.40
2022-10-07T01:53:31.446Z,0.40
2022-10-07T01:57:13.476Z,0.40
2022-10-07T02:01:01.636Z,0.40
2022-10-07T02:04:50.745Z,0.30
2022-10-07T04:13:52.628Z,0.82
2022-10-07T04:29:53.478Z,239.57
2022-10-07T04:33:23.510Z,240.18
2022-10-07T04:36:46.240Z,239.75
2022-10-07T04:45:11.616Z,239.85
2022-10-07T06:41:27.319Z,0.90
2022-10-07T06:48:41.689Z,0.95
2022-10-07T06:56:55.196Z,0.95
2022-10-07T07:04:07.001Z,0.80
2022-10-07T07:22:25.693Z,1.00
2022-10-07T07:25:27.798Z,0.98
2022-10-07T07:35:05.243Z,0.90
2022-10-07T07:37:54.423Z,1.00
2022-10-07T07:58:11.085Z,0.90
2022-10-07T09:34:58.837Z,1.00
2022-10-07T09:39:01.418Z,1.10
2022-10-07T09:45:40.195Z,0.98
2022-10-07T10:21:36.094Z,0.80
2022-10-07T10:54:43.984Z,1.00
2022-10-07T11:06:32.113Z,0.90
2022-10-07T14:56:03.592Z,1.20
2022-10-07T15:23:25.886Z,1.10
2022-10-07T17:04:48.624Z,1.30
2022-10-07T17:08:24.233Z,1.23
2022-10-07T17:11:59.459Z,1.45
2022-10-07T17:15:23.479Z,1.20
2022-10-07T17:18:53.508Z,1.45
2022-10-07T17:22:35.542Z,1.40
2022-10-07T17:25:36.832Z,1.20
2022-10-07T17:29:05.599Z,1.25
2022-10-07T17:32:02.374Z,1.40
2022-10-07T17:35:23.661Z,1.42
2022-10-07T17:38:59.705Z,1.10
2022-10-07T17:42:29.734Z,1.50
2022-10-07T17:45:59.767Z,1.33
2022-10-07T17:49:29.800Z,1.80
2022-10-07T17:52:59.836Z,1.30
2022-10-07T17:56:48.059Z,1.58
2022-10-07T18:00:17.927Z,1.38
2022-10-07T18:03:43.230Z,1.40
2022-10-07T18:07:11.971Z,1.60
2022-10-07T18:10:42.004Z,1.63
2022-10-07T18:14:24.040Z,1.40
2022-10-07T18:17:47.570Z,1.55
2022-10-07T18:21:18.111Z,1.13
2022-10-07T18:24:48.155Z,1.15
2022-10-07T18:28:18.196Z,1.25
2022-10-07T18:31:54.327Z,1.20
2022-10-07T18:35:18.250Z,1.40
2022-10-07T18:38:48.279Z,1.20
2022-10-07T18:42:18.312Z,1.20
2022-10-07T18:45:48.393Z,1.10
2022-10-07T18:49:20.629Z,1.30
2022-10-07T19:55:30.988Z,1.25
2022-10-07T20:39:50.285Z,1.13
2022-10-07T23:27:46.591Z,1.02
